sensor_id;sensor_type;location;lat;lon;timestamp;pressure;altitude;pressure_sealevel;temperature;humidity
62544;BME280;48597;49.030;1.822;2023-05-24T00:02:06;101624.06;;;19.78;42.29
62544;BME280;48597;49.030;1.822;2023-05-24T00:04:32;101613.88;;;19.77;42.08
62544;BME280;48597;49.030;1.822;2023-05-24T00:06:58;101607.31;;;19.77;42.06
62544;BME280;48597;49.030;1.822;2023-05-24T00:09:30;101608.56;;;19.76;41.77
62544;BME280;48597;49.030;1.822;2023-05-24T00:11:55;101602.84;;;19.76;41.82
62544;BME280;48597;49.030;1.822;2023-05-24T00:14:21;101602.47;;;19.74;41.49
62544;BME280;48597;49.030;1.822;2023-05-24T00:16:46;101592.28;;;19.73;41.76
62544;BME280;48597;49.030;1.822;2023-05-24T00:19:12;101593.53;;;19.72;41.60
62544;BME280;48597;49.030;1.822;2023-05-24T00:21:45;101586.19;;;19.71;41.37
62544;BME280;48597;49.030;1.822;2023-05-24T00:24:12;101583.75;;;19.69;41.23
62544;BME280;48597;49.030;1.822;2023-05-24T00:26:37;101596.44;;;19.68;41.22
62544;BME280;48597;49.030;1.822;2023-05-24T00:29:02;101599.31;;;19.68;41.24
62544;BME280;48597;49.030;1.822;2023-05-24T00:31:28;101596.88;;;19.67;40.92
62544;BME280;48597;49.030;1.822;2023-05-24T00:33:53;101603.81;;;19.66;41.07
62544;BME280;48597;49.030;1.822;2023-05-24T00:36:19;101597.72;;;19.63;40.98
62544;BME280;48597;49.030;1.822;2023-05-24T00:38:44;101594.88;;;19.63;40.80
62544;BME280;48597;49.030;1.822;2023-05-24T00:41:09;101589.97;;;19.64;40.71
62544;BME280;48597;49.030;1.822;2023-05-24T00:43:36;101588.34;;;19.63;40.62
62544;BME280;48597;49.030;1.822;2023-05-24T00:46:21;101577.31;;;19.61;40.88
62544;BME280;48597;49.030;1.822;2023-05-24T00:48:49;101574.13;;;19.59;40.78
62544;BME280;48597;49.030;1.822;2023-05-24T00:51:15;101579.03;;;19.59;40.43
62544;BME280;48597;49.030;1.822;2023-05-24T00:53:44;101583.13;;;19.58;40.55
62544;BME280;48597;49.030;1.822;2023-05-24T00:56:12;101578.63;;;19.57;40.46
62544;BME280;48597;49.030;1.822;2023-05-24T00:58:37;101579.06;;;19.55;40.39
62544;BME280;48597;49.030;1.822;2023-05-24T01:01:03;101575.41;;;19.55;40.42
62544;BME280;48597;49.030;1.822;2023-05-24T01:03:29;101574.59;;;19.54;40.13
62544;BME280;48597;49.030;1.822;2023-05-24T01:06:00;101579.50;;;19.54;40.18
62544;BME280;48597;49.030;1.822;2023-05-24T01:20:05;101567.69;;;19.48;40.13
62544;BME280;48597;49.030;1.822;2023-05-24T01:25:38;101575.91;;;19.46;40.02
62544;BME280;48597;49.030;1.822;2023-05-24T01:28:07;101578.41;;;19.44;39.74
62544;BME280;48597;49.030;1.822;2023-05-24T01:30:33;101576.78;;;19.43;39.81
62544;BME280;48597;49.030;1.822;2023-05-24T01:32:58;101566.56;;;19.42;39.83
62544;BME280;48597;49.030;1.822;2023-05-24T01:35:24;101567.38;;;19.43;39.71
62544;BME280;48597;49.030;1.822;2023-05-24T01:37:49;101576.38;;;19.41;39.60
62544;BME280;48597;49.030;1.822;2023-05-24T01:40:15;101573.53;;;19.41;39.69
62544;BME280;48597;49.030;1.822;2023-05-24T01:50:33;101586.25;;;19.37;39.67
62544;BME280;48597;49.030;1.822;2023-05-24T01:53:03;101580.94;;;19.35;39.54
62544;BME280;48597;49.030;1.822;2023-05-24T01:55:32;101586.66;;;19.35;39.48
62544;BME280;48597;49.030;1.822;2023-05-24T01:58:02;101587.13;;;19.34;39.53
62544;BME280;48597;49.030;1.822;2023-05-24T02:00:30;101589.19;;;19.33;39.43
62544;BME280;48597;49.030;1.822;2023-05-24T02:02:56;101590.00;;;19.34;39.48
62544;BME280;48597;49.030;1.822;2023-05-24T02:05:22;101591.66;;;19.31;39.51
62544;BME280;48597;49.030;1.822;2023-05-24T02:07:47;101594.50;;;19.31;39.55
62544;BME280;48597;49.030;1.822;2023-05-24T02:10:13;101585.94;;;19.31;39.41
62544;BME280;48597;49.030;1.822;2023-05-24T02:12:38;101583.50;;;19.30;39.44
62544;BME280;48597;49.030;1.822;2023-05-24T02:15:04;101584.75;;;19.28;39.37
62544;BME280;48597;49.030;1.822;2023-05-24T02:17:30;101586.78;;;19.28;39.28
62544;BME280;48597;49.030;1.822;2023-05-24T02:19:59;101580.25;;;19.27;39.30
62544;BME280;48597;49.030;1.822;2023-05-24T02:22:26;101584.34;;;19.26;39.20
62544;BME280;48597;49.030;1.822;2023-05-24T02:24:51;101584.78;;;19.25;39.19
62544;BME280;48597;49.030;1.822;2023-05-24T02:27:17;101592.53;;;19.24;39.23
62544;BME280;48597;49.030;1.822;2023-05-24T02:29:43;101587.25;;;19.23;39.14
62544;BME280;48597;49.030;1.822;2023-05-24T02:32:08;101597.06;;;19.22;39.29
62544;BME280;48597;49.030;1.822;2023-05-24T02:34:33;101591.34;;;19.22;39.25
62544;BME280;48597;49.030;1.822;2023-05-24T02:36:59;101587.69;;;19.21;39.13
62544;BME280;48597;49.030;1.822;2023-05-24T02:39:24;101583.66;;;19.19;39.17
62544;BME280;48597;49.030;1.822;2023-05-24T02:41:50;101580.00;;;19.18;39.07
62544;BME280;48597;49.030;1.822;2023-05-24T02:44:15;101574.28;;;19.18;39.01
62544;BME280;48597;49.030;1.822;2023-05-24T02:46:41;101566.13;;;19.17;39.05
62544;BME280;48597;49.030;1.822;2023-05-24T02:49:06;101571.03;;;19.16;39.03
62544;BME280;48597;49.030;1.822;2023-05-24T02:51:31;101573.06;;;19.16;39.01
62544;BME280;48597;49.030;1.822;2023-05-24T02:53:57;101570.22;;;19.16;39.02
62544;BME280;48597;49.030;1.822;2023-05-24T02:56:23;101564.94;;;19.14;39.02
62544;BME280;48597;49.030;1.822;2023-05-24T02:58:50;101568.22;;;19.13;39.05
62544;BME280;48597;49.030;1.822;2023-05-24T03:01:18;101571.06;;;19.13;38.89
62544;BME280;48597;49.030;1.822;2023-05-24T03:03:43;101566.59;;;19.12;38.90
62544;BME280;48597;49.030;1.822;2023-05-24T03:06:09;101572.31;;;19.12;38.89
62544;BME280;48597;49.030;1.822;2023-05-24T03:08:34;101569.06;;;19.10;38.88
62544;BME280;48597;49.030;1.822;2023-05-24T03:11:01;101568.25;;;19.09;38.78
62544;BME280;48597;49.030;1.822;2023-05-24T03:13:27;101571.56;;;19.08;38.93
62544;BME280;48597;49.030;1.822;2023-05-24T03:15:52;101574.41;;;19.08;38.82
62544;BME280;48597;49.030;1.822;2023-05-24T03:18:17;101569.94;;;19.07;38.98
62544;BME280;48597;49.030;1.822;2023-05-24T03:20:43;101576.88;;;19.06;38.77
62544;BME280;48597;49.030;1.822;2023-05-24T03:23:08;101568.31;;;19.06;38.73
62544;BME280;48597;49.030;1.822;2023-05-24T03:25:34;101562.22;;;19.04;38.82
62544;BME280;48597;49.030;1.822;2023-05-24T03:27:59;101565.06;;;19.04;38.74
62544;BME280;48597;49.030;1.822;2023-05-24T03:30:26;101572.84;;;19.03;38.68
62544;BME280;48597;49.030;1.822;2023-05-24T03:32:52;101577.75;;;19.03;38.74
62544;BME280;48597;49.030;1.822;2023-05-24T03:35:17;101575.31;;;19.01;38.55
62544;BME280;48597;49.030;1.822;2023-05-24T03:37:42;101580.22;;;19.01;38.70
62544;BME280;48597;49.030;1.822;2023-05-24T03:40:08;101584.31;;;19.00;38.69
62544;BME280;48597;49.030;1.822;2023-05-24T03:42:34;101569.22;;;18.99;38.77
62544;BME280;48597;49.030;1.822;2023-05-24T03:44:59;101571.69;;;18.97;38.62
62544;BME280;48597;49.030;1.822;2023-05-24T03:47:25;101570.88;;;18.97;38.62
62544;BME280;48597;49.030;1.822;2023-05-24T03:49:50;101573.72;;;18.97;38.71
62544;BME280;48597;49.030;1.822;2023-05-24T03:52:15;101575.41;;;18.94;38.59
62544;BME280;48597;49.030;1.822;2023-05-24T03:54:41;101570.50;;;18.95;38.63
62544;BME280;48597;49.030;1.822;2023-05-24T03:57:06;101579.50;;;18.93;38.57
62544;BME280;48597;49.030;1.822;2023-05-24T03:59:31;101584.41;;;18.92;38.49
62544;BME280;48597;49.030;1.822;2023-05-24T04:01:57;101580.75;;;18.92;38.58
62544;BME280;48597;49.030;1.822;2023-05-24T04:04:22;101572.59;;;18.90;38.50
62544;BME280;48597;49.030;1.822;2023-05-24T04:06:48;101584.03;;;18.90;38.61
62544;BME280;48597;49.030;1.822;2023-05-24T04:09:14;101585.25;;;18.89;38.53
62544;BME280;48597;49.030;1.822;2023-05-24T04:11:40;101584.44;;;18.89;38.58
62544;BME280;48597;49.030;1.822;2023-05-24T04:14:05;101586.50;;;18.88;38.52
62544;BME280;48597;49.030;1.822;2023-05-24T04:16:31;101589.34;;;18.88;38.67
62544;BME280;48597;49.030;1.822;2023-05-24T04:18:58;101591.81;;;18.86;38.51
62544;BME280;48597;49.030;1.822;2023-05-24T04:21:26;101581.19;;;18.87;38.52
62544;BME280;48597;49.030;1.822;2023-05-24T04:23:51;101583.66;;;18.85;38.37
62544;BME280;48597;49.030;1.822;2023-05-24T04:26:17;101585.72;;;18.84;38.45
62544;BME280;48597;49.030;1.822;2023-05-24T04:28:43;101581.22;;;18.83;38.54
62544;BME280;48597;49.030;1.822;2023-05-24T04:31:10;101589.00;;;18.83;38.52
62544;BME280;48597;49.030;1.822;2023-05-24T04:33:36;101587.41;;;18.82;38.50
62544;BME280;48597;49.030;1.822;2023-05-24T04:36:03;101593.13;;;18.82;38.47
62544;BME280;48597;49.030;1.822;2023-05-24T04:38:29;101594.34;;;18.81;38.40
62544;BME280;48597;49.030;1.822;2023-05-24T04:40:57;101586.19;;;18.79;38.42
62544;BME280;48597;49.030;1.822;2023-05-24T04:43:23;101598.44;;;18.80;38.40
62544;BME280;48597;49.030;1.822;2023-05-24T04:45:50;101599.66;;;18.79;38.55
62544;BME280;48597;49.030;1.822;2023-05-24T04:48:16;101598.03;;;18.78;38.58
62544;BME280;48597;49.030;1.822;2023-05-24T04:50:41;101608.66;;;18.77;38.63
62544;BME280;48597;49.030;1.822;2023-05-24T04:53:07;101605.00;;;18.77;38.61
62544;BME280;48597;49.030;1.822;2023-05-24T04:55:32;101617.22;;;18.77;38.65
62544;BME280;48597;49.030;1.822;2023-05-24T04:57:58;101617.66;;;18.76;38.58
62544;BME280;48597;49.030;1.822;2023-05-24T05:00:23;101610.72;;;18.73;38.52
62544;BME280;48597;49.030;1.822;2023-05-24T05:02:48;101618.88;;;18.75;38.57
62544;BME280;48597;49.030;1.822;2023-05-24T05:05:14;101621.75;;;18.75;38.59
62544;BME280;48597;49.030;1.822;2023-05-24T05:07:40;101621.34;;;18.73;38.72
62544;BME280;48597;49.030;1.822;2023-05-24T05:10:06;101625.00;;;18.73;38.65
62544;BME280;48597;49.030;1.822;2023-05-24T05:12:31;101627.88;;;18.73;38.67
62544;BME280;48597;49.030;1.822;2023-05-24T05:14:57;101618.09;;;18.71;38.79
62544;BME280;48597;49.030;1.822;2023-05-24T05:17:22;101616.06;;;18.71;38.67
62544;BME280;48597;49.030;1.822;2023-05-24T05:19:47;101616.47;;;18.70;38.71
62544;BME280;48597;49.030;1.822;2023-05-24T05:22:13;101614.44;;;18.70;38.78
62544;BME280;48597;49.030;1.822;2023-05-24T05:24:38;101615.69;;;18.69;38.83
62544;BME280;48597;49.030;1.822;2023-05-24T05:27:04;101616.47;;;18.70;38.91
62544;BME280;48597;49.030;1.822;2023-05-24T05:29:30;101620.16;;;18.70;38.88
62544;BME280;48597;49.030;1.822;2023-05-24T05:31:55;101614.88;;;18.69;38.96
62544;BME280;48597;49.030;1.822;2023-05-24T05:34:20;101609.59;;;18.67;38.84
62544;BME280;48597;49.030;1.822;2023-05-24T05:36:46;101611.22;;;18.68;39.01
62544;BME280;48597;49.030;1.822;2023-05-24T05:39:11;101615.31;;;18.67;39.01
62544;BME280;48597;49.030;1.822;2023-05-24T05:41:40;101610.41;;;18.68;39.02
62544;BME280;48597;49.030;1.822;2023-05-24T05:44:10;101623.06;;;18.67;39.11
62544;BME280;48597;49.030;1.822;2023-05-24T05:46:37;101619.41;;;18.66;39.02
62544;BME280;48597;49.030;1.822;2023-05-24T05:49:02;101618.16;;;18.67;39.26
62544;BME280;48597;49.030;1.822;2023-05-24T05:51:27;101612.88;;;18.66;39.25
62544;BME280;48597;49.030;1.822;2023-05-24T05:53:53;101619.41;;;18.66;39.21
62544;BME280;48597;49.030;1.822;2023-05-24T05:56:18;101610.81;;;18.66;39.38
62544;BME280;48597;49.030;1.822;2023-05-24T05:58:43;101609.22;;;18.65;39.41
62544;BME280;48597;49.030;1.822;2023-05-24T06:01:09;101607.16;;;18.66;39.55
62544;BME280;48597;49.030;1.822;2023-05-24T06:03:34;101612.06;;;18.65;39.56
62544;BME280;48597;49.030;1.822;2023-05-24T06:06:00;101606.34;;;18.65;39.61
62544;BME280;48597;49.030;1.822;2023-05-24T06:08:25;101612.06;;;18.65;39.58
62544;BME280;48597;49.030;1.822;2023-05-24T06:10:51;101621.44;;;18.66;39.68
62544;BME280;48597;49.030;1.822;2023-05-24T06:13:17;101620.63;;;18.65;39.78
62544;BME280;48597;49.030;1.822;2023-05-24T06:15:42;101618.59;;;18.66;39.93
62544;BME280;48597;49.030;1.822;2023-05-24T06:18:07;101627.16;;;18.66;40.02
62544;BME280;48597;49.030;1.822;2023-05-24T06:20:33;101634.91;;;18.65;40.12
62544;BME280;48597;49.030;1.822;2023-05-24T06:22:58;101632.06;;;18.65;40.11
62544;BME280;48597;49.030;1.822;2023-05-24T06:25:24;101636.53;;;18.66;40.35
62544;BME280;48597;49.030;1.822;2023-05-24T06:27:50;101637.34;;;18.67;40.33
62544;BME280;48597;49.030;1.822;2023-05-24T06:30:16;101646.72;;;18.67;40.42
62544;BME280;48597;49.030;1.822;2023-05-24T06:32:42;101639.78;;;18.68;40.46
62544;BME280;48597;49.030;1.822;2023-05-24T06:35:08;101643.88;;;18.67;40.60
62544;BME280;48597;49.030;1.822;2023-05-24T06:37:33;101632.44;;;18.67;40.61
62544;BME280;48597;49.030;1.822;2023-05-24T06:39:59;101628.34;;;18.68;40.69
62544;BME280;48597;49.030;1.822;2023-05-24T06:42:25;101631.22;;;18.68;40.63
62544;BME280;48597;49.030;1.822;2023-05-24T06:44:50;101624.69;;;18.68;40.77
62544;BME280;48597;49.030;1.822;2023-05-24T06:47:15;101626.31;;;18.69;40.82
62544;BME280;48597;49.030;1.822;2023-05-24T06:49:41;101635.69;;;18.69;40.94
62544;BME280;48597;49.030;1.822;2023-05-24T06:52:06;101640.59;;;18.69;41.08
62544;BME280;48597;49.030;1.822;2023-05-24T06:54:32;101634.44;;;18.70;41.05
62544;BME280;48597;49.030;1.822;2023-05-24T06:56:58;101636.47;;;18.70;41.22
62544;BME280;48597;49.030;1.822;2023-05-24T06:59:24;101640.13;;;18.70;41.33
62544;BME280;48597;49.030;1.822;2023-05-24T07:01:49;101643.38;;;18.72;41.53
62544;BME280;48597;49.030;1.822;2023-05-24T07:04:21;101643.38;;;18.72;41.39
62544;BME280;48597;49.030;1.822;2023-05-24T07:06:46;101638.47;;;18.73;41.60
62544;BME280;48597;49.030;1.822;2023-05-24T07:09:12;101630.72;;;18.73;41.72
62544;BME280;48597;49.030;1.822;2023-05-24T07:11:39;101640.91;;;18.74;41.82
62544;BME280;48597;49.030;1.822;2023-05-24T07:14:05;101643.34;;;18.76;41.96
62544;BME280;48597;49.030;1.822;2023-05-24T07:16:30;101644.16;;;18.76;42.03
62544;BME280;48597;49.030;1.822;2023-05-24T07:18:56;101654.34;;;18.77;42.10
62544;BME280;48597;49.030;1.822;2023-05-24T07:21:22;101644.97;;;18.77;42.08
62544;BME280;48597;49.030;1.822;2023-05-24T07:23:49;101640.47;;;18.79;42.24
62544;BME280;48597;49.030;1.822;2023-05-24T07:26:15;101643.31;;;18.79;42.18
62544;BME280;48597;49.030;1.822;2023-05-24T07:28:41;101638.00;;;18.81;42.27
62544;BME280;48597;49.030;1.822;2023-05-24T07:31:08;101653.09;;;18.82;42.33
62544;BME280;48597;49.030;1.822;2023-05-24T07:33:37;101656.75;;;18.82;42.43
62544;BME280;48597;49.030;1.822;2023-05-24T07:36:04;101664.88;;;18.84;42.49
62544;BME280;48597;49.030;1.822;2023-05-24T07:38:30;101644.06;;;18.83;42.50
62544;BME280;48597;49.030;1.822;2023-05-24T07:40:58;101644.47;;;18.85;42.46
62544;BME280;48597;49.030;1.822;2023-05-24T07:43:26;101645.28;;;18.86;42.60
62544;BME280;48597;49.030;1.822;2023-05-24T07:45:52;101640.38;;;18.86;42.55
62544;BME280;48597;49.030;1.822;2023-05-24T07:48:18;101644.84;;;18.87;42.59
62544;BME280;48597;49.030;1.822;2023-05-24T07:50:47;101638.72;;;18.89;42.53
62544;BME280;48597;49.030;1.822;2023-05-24T07:53:14;101641.16;;;18.90;42.77
62544;BME280;48597;49.030;1.822;2023-05-24T07:55:39;101641.97;;;18.91;42.89
62544;BME280;48597;49.030;1.822;2023-05-24T07:58:05;101645.63;;;18.91;42.78
62544;BME280;48597;49.030;1.822;2023-05-24T08:00:30;101650.94;;;18.93;42.85
62544;BME280;48597;49.030;1.822;2023-05-24T08:02:57;101651.72;;;18.94;42.95
62544;BME280;48597;49.030;1.822;2023-05-24T08:05:22;101659.06;;;18.95;43.02
62544;BME280;48597;49.030;1.822;2023-05-24T08:07:48;101661.47;;;18.96;42.98
62544;BME280;48597;49.030;1.822;2023-05-24T08:10:13;101654.53;;;18.97;43.35
62544;BME280;48597;49.030;1.822;2023-05-24T08:12:39;101647.56;;;18.98;44.34
62544;BME280;48597;49.030;1.822;2023-05-24T08:15:05;101654.91;;;18.99;45.13
62544;BME280;48597;49.030;1.822;2023-05-24T08:17:30;101645.13;;;19.00;45.88
62544;BME280;48597;49.030;1.822;2023-05-24T08:19:56;101653.25;;;19.02;45.92
62544;BME280;48597;49.030;1.822;2023-05-24T08:22:21;101658.97;;;19.02;46.14
62544;BME280;48597;49.030;1.822;2023-05-24T08:24:46;101660.19;;;19.04;46.58
62544;BME280;48597;49.030;1.822;2023-05-24T08:27:12;101661.00;;;19.05;46.82
62544;BME280;48597;49.030;1.822;2023-05-24T08:29:38;101658.53;;;19.07;46.71
62544;BME280;48597;49.030;1.822;2023-05-24T08:32:04;101657.28;;;19.08;46.80
62544;BME280;48597;49.030;1.822;2023-05-24T08:34:36;101647.44;;;19.09;46.81
62544;BME280;48597;49.030;1.822;2023-05-24T08:37:03;101647.84;;;19.11;47.16
62544;BME280;48597;49.030;1.822;2023-05-24T08:39:28;101647.41;;;19.12;47.11
62544;BME280;48597;49.030;1.822;2023-05-24T08:41:54;101644.13;;;19.14;47.42
62544;BME280;48597;49.030;1.822;2023-05-24T08:44:20;101649.41;;;19.15;47.27
62544;BME280;48597;49.030;1.822;2023-05-24T08:46:47;101654.72;;;19.17;47.42
62544;BME280;48597;49.030;1.822;2023-05-24T08:49:15;101650.63;;;19.18;47.05
62544;BME280;48597;49.030;1.822;2023-05-24T08:51:42;101650.19;;;19.19;47.75
62544;BME280;48597;49.030;1.822;2023-05-24T08:54:09;101653.41;;;19.21;47.30
62544;BME280;48597;49.030;1.822;2023-05-24T08:56:36;101656.28;;;19.21;47.57
62544;BME280;48597;49.030;1.822;2023-05-24T08:59:04;101663.19;;;19.24;47.90
62544;BME280;48597;49.030;1.822;2023-05-24T09:01:30;101660.28;;;19.27;48.05
62544;BME280;48597;49.030;1.822;2023-05-24T09:03:57;101652.09;;;19.30;48.02
62544;BME280;48597;49.030;1.822;2023-05-24T09:06:24;101657.81;;;19.30;47.74
62544;BME280;48597;49.030;1.822;2023-05-24T09:08:50;101645.97;;;19.31;47.88
62544;BME280;48597;49.030;1.822;2023-05-24T09:11:17;101647.16;;;19.34;48.00
62544;BME280;48597;49.030;1.822;2023-05-24T09:13:44;101646.34;;;19.33;47.93
62544;BME280;48597;49.030;1.822;2023-05-24T09:16:09;101652.41;;;19.35;47.98
62544;BME280;48597;49.030;1.822;2023-05-24T09:18:35;101643.41;;;19.37;47.98
62544;BME280;48597;49.030;1.822;2023-05-24T09:21:01;101653.19;;;19.39;48.18
62544;BME280;48597;49.030;1.822;2023-05-24T09:23:26;101636.84;;;19.40;48.02
62544;BME280;48597;49.030;1.822;2023-05-24T09:25:52;101642.16;;;19.41;47.95
62544;BME280;48597;49.030;1.822;2023-05-24T09:28:18;101633.16;;;19.43;48.02
62544;BME280;48597;49.030;1.822;2023-05-24T09:30:57;101627.00;;;19.44;47.91
62544;BME280;48597;49.030;1.822;2023-05-24T09:33:27;101630.25;;;19.46;48.20
62544;BME280;48597;49.030;1.822;2023-05-24T09:35:56;101623.28;;;19.47;48.21
62544;BME280;48597;49.030;1.822;2023-05-24T09:38:22;101626.16;;;19.47;48.13
62544;BME280;48597;49.030;1.822;2023-05-24T09:43:25;101622.44;;;19.50;48.29
62544;BME280;48597;49.030;1.822;2023-05-24T09:45:51;101628.16;;;19.50;48.19
62544;BME280;48597;49.030;1.822;2023-05-24T09:48:19;101622.81;;;19.52;48.00
62544;BME280;48597;49.030;1.822;2023-05-24T09:50:57;101615.44;;;19.55;47.65
62544;BME280;48597;49.030;1.822;2023-05-24T09:53:23;101614.25;;;19.52;47.37
62544;BME280;48597;49.030;1.822;2023-05-24T09:55:49;101607.66;;;19.55;47.38
62544;BME280;48597;49.030;1.822;2023-05-24T09:58:15;101610.91;;;19.57;47.15
62544;BME280;48597;49.030;1.822;2023-05-24T10:00:41;101607.25;;;19.57;47.21
62544;BME280;48597;49.030;1.822;2023-05-24T10:03:08;101608.84;;;19.58;47.18
62544;BME280;48597;49.030;1.822;2023-05-24T10:05:41;101612.53;;;19.58;47.21
62544;BME280;48597;49.030;1.822;2023-05-24T10:08:07;101617.81;;;19.60;47.22
62544;BME280;48597;49.030;1.822;2023-05-24T10:10:35;101624.69;;;19.62;47.20
62544;BME280;48597;49.030;1.822;2023-05-24T10:13:01;101622.66;;;19.63;47.23
62544;BME280;48597;49.030;1.822;2023-05-24T10:15:28;101619.38;;;19.65;47.20
62544;BME280;48597;49.030;1.822;2023-05-24T10:17:54;101615.28;;;19.66;47.06
62544;BME280;48597;49.030;1.822;2023-05-24T10:20:23;101616.09;;;19.66;47.28
62544;BME280;48597;49.030;1.822;2023-05-24T10:22:55;101617.28;;;19.69;47.26
62544;BME280;48597;49.030;1.822;2023-05-24T10:25:23;101611.56;;;19.69;47.16
62544;BME280;48597;49.030;1.822;2023-05-24T10:27:55;101611.13;;;19.70;47.15
62544;BME280;48597;49.030;1.822;2023-05-24T10:33:06;101613.56;;;19.72;47.15
62544;BME280;48597;49.030;1.822;2023-05-24T10:35:32;101621.72;;;19.73;47.33
62544;BME280;48597;49.030;1.822;2023-05-24T10:38:04;101615.53;;;19.75;46.99
62544;BME280;48597;49.030;1.822;2023-05-24T10:40:31;101610.63;;;19.75;47.32
62544;BME280;48597;49.030;1.822;2023-05-24T10:42:56;101618.78;;;19.77;47.32
62544;BME280;48597;49.030;1.822;2023-05-24T10:45:29;101610.56;;;19.79;47.08
62544;BME280;48597;49.030;1.822;2023-05-24T10:50:37;101609.34;;;19.80;47.53
62544;BME280;48597;49.030;1.822;2023-05-24T10:53:17;101610.94;;;19.81;47.04
62544;BME280;48597;49.030;1.822;2023-05-24T10:58:26;101600.28;;;19.85;46.97
62544;BME280;48597;49.030;1.822;2023-05-24T11:00:52;101611.72;;;19.85;46.89
62544;BME280;48597;49.030;1.822;2023-05-24T11:03:18;101612.06;;;19.87;46.78
62544;BME280;48597;49.030;1.822;2023-05-24T11:05:50;101619.41;;;19.88;46.93
62544;BME280;48597;49.030;1.822;2023-05-24T11:08:31;101609.16;;;19.90;46.83
62544;BME280;48597;49.030;1.822;2023-05-24T11:11:13;101612.81;;;19.91;46.90
62544;BME280;48597;49.030;1.822;2023-05-24T11:13:40;101608.72;;;19.92;46.90
62544;BME280;48597;49.030;1.822;2023-05-24T11:16:06;101611.16;;;19.93;46.63
62544;BME280;48597;49.030;1.822;2023-05-24T11:18:32;101611.97;;;19.94;46.84
62544;BME280;48597;49.030;1.822;2023-05-24T11:21:03;101622.19;;;19.95;46.55
62544;BME280;48597;49.030;1.822;2023-05-24T11:23:30;101610.31;;;19.96;46.55
62544;BME280;48597;49.030;1.822;2023-05-24T11:25:55;101609.06;;;19.97;46.52
62544;BME280;48597;49.030;1.822;2023-05-24T11:28:21;101602.09;;;19.98;46.57
62544;BME280;48597;49.030;1.822;2023-05-24T11:30:48;101610.22;;;20.00;46.48
62544;BME280;48597;49.030;1.822;2023-05-24T11:33:20;101606.13;;;20.01;46.54
62544;BME280;48597;49.030;1.822;2023-05-24T11:35:47;101611.41;;;20.03;46.52
62544;BME280;48597;49.030;1.822;2023-05-24T11:38:15;101617.94;;;20.03;46.48
62544;BME280;48597;49.030;1.822;2023-05-24T11:40:45;101608.13;;;20.04;46.44
62544;BME280;48597;49.030;1.822;2023-05-24T11:43:16;101603.59;;;20.07;46.56
62544;BME280;48597;49.030;1.822;2023-05-24T11:45:47;101608.50;;;20.06;46.49
62544;BME280;48597;49.030;1.822;2023-05-24T11:48:13;101599.47;;;20.08;46.43
62544;BME280;48597;49.030;1.822;2023-05-24T11:50:40;101601.91;;;20.09;46.49
62544;BME280;48597;49.030;1.822;2023-05-24T11:53:09;101604.34;;;20.11;46.50
62544;BME280;48597;49.030;1.822;2023-05-24T11:55:35;101599.44;;;20.11;46.47
62544;BME280;48597;49.030;1.822;2023-05-24T11:58:00;101609.63;;;20.12;46.61
62544;BME280;48597;49.030;1.822;2023-05-24T12:00:30;101596.91;;;20.13;46.49
62544;BME280;48597;49.030;1.822;2023-05-24T12:02:56;101598.53;;;20.14;46.59
62544;BME280;48597;49.030;1.822;2023-05-24T12:05:22;101592.81;;;20.14;46.41
62544;BME280;48597;49.030;1.822;2023-05-24T12:08:00;101591.13;;;20.17;46.56
62544;BME280;48597;49.030;1.822;2023-05-24T12:10:26;101583.34;;;20.17;46.40
62544;BME280;48597;49.030;1.822;2023-05-24T12:12:51;101587.03;;;20.18;46.70
62544;BME280;48597;49.030;1.822;2023-05-24T12:15:17;101593.13;;;20.20;46.54
62544;BME280;48597;49.030;1.822;2023-05-24T12:17:43;101585.34;;;20.20;46.53
62544;BME280;48597;49.030;1.822;2023-05-24T12:20:14;101579.19;;;20.22;46.67
62544;BME280;48597;49.030;1.822;2023-05-24T12:22:49;101575.91;;;20.23;46.55
62544;BME280;48597;49.030;1.822;2023-05-24T12:25:16;101567.31;;;20.23;46.54
62544;BME280;48597;49.030;1.822;2023-05-24T12:27:45;101568.13;;;20.24;46.40
62544;BME280;48597;49.030;1.822;2023-05-24T12:30:14;101573.38;;;20.25;46.37
62544;BME280;48597;49.030;1.822;2023-05-24T12:32:46;101565.16;;;20.27;46.40
62544;BME280;48597;49.030;1.822;2023-05-24T12:35:12;101563.94;;;20.28;46.51
62544;BME280;48597;49.030;1.822;2023-05-24T12:37:37;101570.47;;;20.29;46.36
62544;BME280;48597;49.030;1.822;2023-05-24T12:40:16;101565.56;;;20.29;46.35
62544;BME280;48597;49.030;1.822;2023-05-24T12:42:45;101562.25;;;20.31;46.54
62544;BME280;48597;49.030;1.822;2023-05-24T12:45:13;101563.88;;;20.32;46.45
62544;BME280;48597;49.030;1.822;2023-05-24T12:47:39;101559.75;;;20.33;46.36
62544;BME280;48597;49.030;1.822;2023-05-24T12:50:05;101563.44;;;20.33;46.38
62544;BME280;48597;49.030;1.822;2023-05-24T12:52:30;101567.91;;;20.34;46.58
62544;BME280;48597;49.030;1.822;2023-05-24T12:54:55;101565.47;;;20.37;46.56
62544;BME280;48597;49.030;1.822;2023-05-24T12:57:21;101558.94;;;20.36;46.61
62544;BME280;48597;49.030;1.822;2023-05-24T12:59:47;101557.69;;;20.37;46.38
62544;BME280;48597;49.030;1.822;2023-05-24T13:02:12;101551.97;;;20.37;46.40
62544;BME280;48597;49.030;1.822;2023-05-24T13:04:38;101557.22;;;20.39;46.37
62544;BME280;48597;49.030;1.822;2023-05-24T13:07:03;101540.84;;;20.39;46.34
62544;BME280;48597;49.030;1.822;2023-05-24T13:09:28;101545.34;;;20.40;46.37
62544;BME280;48597;49.030;1.822;2023-05-24T13:11:54;101537.56;;;20.41;46.62
62544;BME280;48597;49.030;1.822;2023-05-24T13:14:20;101537.13;;;20.42;46.49
62544;BME280;48597;49.030;1.822;2023-05-24T13:16:45;101538.72;;;20.43;46.40
62544;BME280;48597;49.030;1.822;2023-05-24T13:19:11;101535.88;;;20.43;46.44
62544;BME280;48597;49.030;1.822;2023-05-24T13:21:36;101530.94;;;20.44;46.49